Time;durP1;ratioP1;P1;durP2;ratioP2;P2;SDS_P1;SDS_P2;PMS_P1;PMS_P2;Temp;Humidity;BMP_temperature;BMP_pressure;BME280_temperature;BME280_humidity;BME280_pressure;Samples;Min_cycle;Max_cycle;Signal;HPM_P1;HPM_P2
2021/12/03 00:01:08;;;;;;;11.77;4.38;;;-1.10;99.90;;;;;;5071682;28;20052;-39
2021/12/03 00:03:35;;;;;;;9.57;4.55;;;-1.20;99.90;;;;;;5071221;28;20494;-39
2021/12/03 00:06:01;;;;;;;15.10;4.28;;;-1.10;99.90;;;;;;5071495;28;20048;-39
2021/12/03 00:08:26;;;;;;;16.55;5.18;;;-1.10;99.90;;;;;;5071364;28;20040;-39
2021/12/03 00:10:59;;;;;;;14.80;5.40;;;-1.10;99.90;;;;;;5071257;28;20429;-39
2021/12/03 00:13:26;;;;;;;11.95;5.65;;;-1.10;99.90;;;;;;5071657;28;20074;-39
2021/12/03 00:15:54;;;;;;;16.27;5.68;;;-1.10;99.90;;;;;;5071292;28;20486;-39
2021/12/03 00:18:20;;;;;;;9.50;5.30;;;-1.10;99.90;;;;;;5071232;28;20173;-39
2021/12/03 00:20:46;;;;;;;13.00;5.28;;;-1.10;99.90;;;;;;5071167;28;20063;-39
2021/12/03 00:23:12;;;;;;;15.13;6.35;;;-1.20;99.90;;;;;;5071261;28;20048;-39
2021/12/03 00:25:38;;;;;;;17.27;6.32;;;-1.10;99.90;;;;;;5071101;28;20423;-39
2021/12/03 00:28:04;;;;;;;15.45;6.22;;;-1.20;99.90;;;;;;5070791;28;20170;-39
2021/12/03 00:30:31;;;;;;;13.73;6.03;;;-1.20;99.90;;;;;;5070962;28;20070;-39
2021/12/03 00:32:57;;;;;;;20.15;5.82;;;-1.20;99.90;;;;;;5070965;28;20045;-39
2021/12/03 00:35:23;;;;;;;11.20;6.78;;;-1.10;99.90;;;;;;5071467;28;20032;-39
2021/12/03 00:37:50;;;;;;;19.00;6.85;;;-0.70;99.90;;;;;;5070902;28;20396;-39
2021/12/03 00:40:25;;;;;;;14.95;6.20;;;-1.20;99.90;;;;;;5070223;28;20462;-39
2021/12/03 00:42:51;;;;;;;21.15;7.22;;;-1.30;99.90;;;;;;5070324;28;20093;-39
2021/12/03 00:45:17;;;;;;;16.02;6.45;;;-1.40;99.90;;;;;;5069531;28;20124;-39
2021/12/03 00:47:44;;;;;;;18.23;8.00;;;-1.10;99.90;;;;;;5070246;28;20036;-39
2021/12/03 00:50:12;;;;;;;15.45;7.60;;;-0.80;99.90;;;;;;5070722;28;20044;-39
2021/12/03 00:52:38;;;;;;;13.55;6.07;;;-1.00;99.90;;;;;;5070712;28;20533;-39
2021/12/03 00:55:07;;;;;;;18.00;6.63;;;0.10;99.90;;;;;;5070390;28;20553;-39
2021/12/03 00:57:33;;;;;;;13.52;6.00;;;-0.90;99.90;;;;;;5052260;28;20066;-39
2021/12/03 00:59:58;;;;;;;19.70;6.55;;;-0.80;99.90;;;;;;5052197;28;20423;-38
2021/12/03 01:02:24;;;;;;;16.77;7.38;;;-0.80;99.90;;;;;;5070638;28;20429;-39
2021/12/03 01:04:50;;;;;;;22.50;8.88;;;-0.70;99.90;;;;;;5070080;28;20127;-39
2021/12/03 01:07:16;;;;;;;21.50;9.90;;;-0.70;99.90;;;;;;5069954;28;20093;-39
2021/12/03 01:09:42;;;;;;;23.10;10.60;;;-0.60;99.90;;;;;;5069657;28;20032;-39
2021/12/03 01:12:08;;;;;;;27.42;10.70;;;-0.60;99.90;;;;;;5070050;28;20071;-39
2021/12/03 01:14:36;;;;;;;31.50;11.65;;;-0.60;99.90;;;;;;5069933;28;20077;-39
2021/12/03 01:17:02;;;;;;;29.15;11.95;;;-0.50;99.90;;;;;;5070102;28;20066;-39
2021/12/03 01:19:28;;;;;;;27.60;12.48;;;-0.50;99.90;;;;;;5051845;28;20539;-39
2021/12/03 01:21:54;;;;;;;33.28;13.20;;;-0.40;99.90;;;;;;5051605;28;20068;-39
2021/12/03 01:24:19;;;;;;;26.42;11.07;;;-0.30;99.90;;;;;;5070410;28;20060;-39
2021/12/03 01:26:46;;;;;;;33.95;14.25;;;-0.40;99.90;;;;;;5069445;28;20405;-39
2021/12/03 01:29:12;;;;;;;35.10;14.07;;;-0.30;99.90;;;;;;5069620;28;20076;-39
2021/12/03 01:31:38;;;;;;;39.10;14.52;;;-0.30;99.90;;;;;;5069660;28;20040;-39
2021/12/03 01:34:04;;;;;;;39.20;14.90;;;-0.20;99.90;;;;;;5069216;28;20041;-39
2021/12/03 01:36:30;;;;;;;32.65;13.35;;;-0.30;99.90;;;;;;5069597;28;20047;-39
2021/12/03 01:38:56;;;;;;;33.35;14.82;;;-0.40;99.90;;;;;;5069175;28;20370;-39
2021/12/03 01:41:22;;;;;;;42.28;15.77;;;-0.20;99.90;;;;;;5069296;28;20197;-39
2021/12/03 01:43:48;;;;;;;39.10;15.63;;;-0.30;99.90;;;;;;5069576;28;20072;-39
2021/12/03 01:46:18;;;;;;;33.67;14.43;;;-0.20;99.90;;;;;;5068287;28;20497;-39
2021/12/03 01:48:44;;;;;;;34.47;14.07;;;-0.20;99.90;;;;;;5069119;28;20045;-39
2021/12/03 01:51:10;;;;;;;35.35;15.48;;;-0.20;99.90;;;;;;5069190;28;20474;-39
2021/12/03 01:53:38;;;;;;;35.75;14.50;;;-0.20;99.90;;;;;;5069317;28;20045;-39
2021/12/03 01:56:08;;;;;;;30.92;14.07;;;-0.20;99.90;;;;;;5068850;28;20479;-39
2021/12/03 01:58:33;;;;;;;31.45;14.98;;;-0.20;99.90;;;;;;5069863;28;20048;-39
2021/12/03 02:01:02;;;;;;;31.52;14.50;;;-0.20;99.90;;;;;;5069148;28;20047;-39
2021/12/03 02:03:31;;;;;;;31.58;14.45;;;-0.30;99.90;;;;;;5069192;28;20040;-39
2021/12/03 02:05:58;;;;;;;36.15;14.40;;;-0.20;99.90;;;;;;5068641;28;20044;-39
2021/12/03 02:08:24;;;;;;;37.20;14.85;;;-0.20;99.90;;;;;;5069328;28;20048;-39
2021/12/03 02:10:50;;;;;;;33.78;15.60;;;-0.20;99.90;;;;;;5068789;28;20399;-39
2021/12/03 02:13:16;;;;;;;36.55;16.73;;;-0.20;99.90;;;;;;5069022;28;20036;-39
2021/12/03 02:15:43;;;;;;;38.38;18.08;;;-0.20;99.90;;;;;;5068693;28;20055;-39
2021/12/03 02:18:10;;;;;;;44.15;19.63;;;-0.20;99.90;;;;;;5068765;28;20036;-39
2021/12/03 02:20:47;;;;;;;39.65;19.38;;;-0.20;99.90;;;;;;5069138;28;20045;-39
2021/12/03 02:23:14;;;;;;;43.80;20.02;;;-0.20;99.90;;;;;;5068972;28;20109;-39
2021/12/03 02:25:40;;;;;;;45.78;19.67;;;-0.20;99.90;;;;;;5069071;28;20048;-39
2021/12/03 02:28:06;;;;;;;52.83;23.58;;;-0.20;99.90;;;;;;5068980;28;20494;-39
2021/12/03 02:30:32;;;;;;;58.53;24.75;;;-0.20;99.90;;;;;;5068949;28;20044;-39
2021/12/03 02:32:58;;;;;;;65.30;24.92;;;-0.20;99.90;;;;;;5068789;28;20484;-39
2021/12/03 02:35:25;;;;;;;61.40;25.45;;;-0.10;99.90;;;;;;5068620;28;20036;-39
2021/12/03 02:37:51;;;;;;;72.63;28.83;;;-0.10;99.90;;;;;;5068930;28;20036;-39
2021/12/03 02:40:18;;;;;;;73.55;32.40;;;-0.20;99.90;;;;;;5068614;28;20048;-39
2021/12/03 02:42:44;;;;;;;85.53;35.38;;;-0.10;99.90;;;;;;5068490;28;20236;-39
2021/12/03 02:45:12;;;;;;;86.43;36.80;;;-0.20;99.90;;;;;;5066624;28;20536;-39
2021/12/03 02:47:39;;;;;;;88.85;38.30;;;-0.10;99.90;;;;;;5068415;28;20041;-39
2021/12/03 02:50:06;;;;;;;92.57;41.17;;;-0.10;99.90;;;;;;5068236;28;20063;-39
2021/12/03 02:52:32;;;;;;;94.38;40.85;;;-0.20;99.90;;;;;;5068669;28;20056;-39
2021/12/03 02:54:58;;;;;;;84.15;39.78;;;-0.10;99.90;;;;;;5068461;28;20047;-39
2021/12/03 02:57:24;;;;;;;107.82;46.25;;;-0.10;99.90;;;;;;5068573;28;20052;-39
2021/12/03 02:59:50;;;;;;;98.80;41.78;;;-0.10;99.90;;;;;;5068816;28;20170;-39
2021/12/03 03:02:16;;;;;;;94.47;43.08;;;-0.10;99.90;;;;;;5069235;28;20500;-39
2021/12/03 03:04:41;;;;;;;107.88;48.83;;;-0.10;99.90;;;;;;5054326;28;20379;-39
2021/12/03 03:07:07;;;;;;;99.38;45.85;;;-0.10;99.90;;;;;;5072643;28;20105;-39
2021/12/03 03:09:34;;;;;;;104.13;46.85;;;-0.10;99.90;;;;;;5072555;28;20114;-39
2021/12/03 03:11:59;;;;;;;92.88;45.13;;;-0.10;99.90;;;;;;5071868;28;20635;-39
2021/12/03 03:14:26;;;;;;;98.18;48.35;;;0.30;99.90;;;;;;5072472;28;20076;-39
2021/12/03 03:16:52;;;;;;;96.88;45.42;;;-0.10;99.90;;;;;;5072072;28;20119;-39
2021/12/03 03:19:20;;;;;;;90.15;45.40;;;-0.10;99.90;;;;;;5072018;28;20056;-39
2021/12/03 03:21:46;;;;;;;111.00;46.78;;;-0.10;99.90;;;;;;5071883;28;20128;-39
2021/12/03 03:24:13;;;;;;;100.63;46.10;;;-0.10;99.90;;;;;;5072115;28;20587;-39
2021/12/03 03:26:40;;;;;;;108.40;51.20;;;-0.10;99.90;;;;;;5071994;28;20044;-39
2021/12/03 03:29:08;;;;;;;116.88;51.78;;;-0.10;99.90;;;;;;5071794;28;20090;-39
2021/12/03 03:31:35;;;;;;;98.57;42.92;;;0.10;99.90;;;;;;5071833;28;20045;-39
2021/12/03 03:34:02;;;;;;;113.00;50.70;;;-0.10;99.90;;;;;;5071574;28;20209;-39
2021/12/03 03:36:34;;;;;;;112.18;50.85;;;-0.10;99.90;;;;;;5054004;28;20070;-39
2021/12/03 03:39:00;;;;;;;;;;;-0.10;99.90;;;;;;5072670;28;20054;-39
2021/12/03 03:41:26;;;;;;;117.13;51.42;;;-0.10;99.90;;;;;;5071964;28;20015;-39
2021/12/03 03:43:52;;;;;;;109.05;51.22;;;-0.20;99.90;;;;;;5072377;28;20124;-39
2021/12/03 03:46:18;;;;;;;115.82;55.35;;;-0.20;99.90;;;;;;5070155;28;20074;-40
2021/12/03 03:48:44;;;;;;;115.78;51.17;;;-0.20;99.90;;;;;;5071510;28;20062;-39
2021/12/03 03:51:10;;;;;;;114.85;53.53;;;0.00;99.90;;;;;;5071490;28;20054;-39
2021/12/03 03:53:38;;;;;;;112.45;55.97;;;-0.30;99.90;;;;;;5071804;28;20225;-39
2021/12/03 03:56:05;;;;;;;108.32;52.20;;;-0.20;99.90;;;;;;5071675;28;20044;-39
2021/12/03 03:58:31;;;;;;;111.68;54.63;;;0.30;99.90;;;;;;5071539;28;20032;-39
2021/12/03 04:00:57;;;;;;;117.22;55.13;;;-0.20;99.90;;;;;;5071189;28;20053;-39
2021/12/03 04:03:23;;;;;;;116.43;55.42;;;-0.30;99.90;;;;;;5071750;28;20494;-39
2021/12/03 04:05:49;;;;;;;105.68;53.30;;;-0.30;99.90;;;;;;5071461;28;20395;-39
2021/12/03 04:08:15;;;;;;;114.25;54.60;;;-0.20;99.90;;;;;;5071209;28;20470;-39
2021/12/03 04:10:41;;;;;;;108.30;52.65;;;-0.30;99.90;;;;;;5053170;28;20040;-39
2021/12/03 04:13:07;;;;;;;117.78;53.28;;;-0.30;99.90;;;;;;5071356;28;20060;-39
2021/12/03 04:15:33;;;;;;;106.45;51.17;;;-0.30;99.90;;;;;;5071303;28;20119;-39
2021/12/03 04:17:59;;;;;;;104.38;51.33;;;-0.30;99.90;;;;;;5071055;28;20115;-39
2021/12/03 04:20:25;;;;;;;108.43;53.47;;;-0.30;99.90;;;;;;5070982;28;20037;-39
2021/12/03 04:22:52;;;;;;;117.50;54.53;;;-0.30;99.90;;;;;;5070870;28;20067;-39
2021/12/03 04:25:21;;;;;;;113.03;53.58;;;-0.30;99.90;;;;;;5070927;28;20064;-39
2021/12/03 04:27:48;;;;;;;105.45;51.47;;;-0.30;99.90;;;;;;5070991;28;20119;-39
2021/12/03 04:30:26;;;;;;;101.57;49.20;;;-0.30;99.90;;;;;;5070613;28;20036;-39
2021/12/03 04:32:53;;;;;;;109.97;53.70;;;-0.30;99.90;;;;;;5052833;28;20053;-39
2021/12/03 04:35:19;;;;;;;121.43;57.28;;;-0.30;99.90;;;;;;5070711;28;20127;-39
2021/12/03 04:37:45;;;;;;;107.72;52.95;;;-0.30;99.90;;;;;;5070571;28;20048;-39
2021/12/03 04:40:14;;;;;;;106.28;52.35;;;-0.30;99.90;;;;;;5052529;28;20036;-39
2021/12/03 04:42:40;;;;;;;105.97;51.83;;;-0.30;99.90;;;;;;5070835;28;20516;-39
2021/12/03 04:45:09;;;;;;;105.47;53.30;;;-0.30;99.90;;;;;;5069158;28;20076;-39
2021/12/03 04:47:36;;;;;;;99.45;50.40;;;-0.30;99.90;;;;;;5070760;28;20040;-39
2021/12/03 04:50:04;;;;;;;108.18;52.72;;;-0.40;99.90;;;;;;5070430;28;20080;-39
2021/12/03 04:52:30;;;;;;;114.18;54.75;;;-0.40;99.90;;;;;;5070343;28;20051;-39
2021/12/03 04:54:56;;;;;;;101.00;48.35;;;-0.30;99.90;;;;;;5070607;28;20064;-39
2021/12/03 04:57:22;;;;;;;109.50;51.10;;;-0.30;99.90;;;;;;5070107;28;20068;-39
2021/12/03 04:59:48;;;;;;;102.40;50.55;;;-0.20;99.90;;;;;;5070282;28;20428;-39
2021/12/03 05:02:14;;;;;;;112.00;52.22;;;-0.30;99.90;;;;;;5070164;28;20128;-39
2021/12/03 05:04:40;;;;;;;113.65;52.95;;;-0.30;99.90;;;;;;5069989;28;20044;-39
2021/12/03 05:09:37;;;;;;;113.22;53.30;;;-0.30;99.90;;;;;;5070056;28;20059;-39
2021/12/03 05:12:04;;;;;;;111.60;54.90;;;-0.30;99.90;;;;;;5069643;28;20048;-39
2021/12/03 05:14:30;;;;;;;112.32;54.13;;;-0.40;99.90;;;;;;5070515;28;20037;-39
2021/12/03 05:16:56;;;;;;;109.00;53.47;;;-0.40;99.90;;;;;;5068270;28;20037;-43
2021/12/03 05:19:22;;;;;;;106.57;50.60;;;-0.40;99.90;;;;;;5030581;28;20536;-44
2021/12/03 05:21:49;;;;;;;117.43;55.78;;;-0.50;99.90;;;;;;5066773;28;20060;-45
2021/12/03 05:24:15;;;;;;;111.80;57.38;;;-0.50;99.90;;;;;;5070198;28;20117;-40
2021/12/03 05:26:43;;;;;;;116.20;56.85;;;-0.60;99.90;;;;;;5068886;28;20074;-43
2021/12/03 05:29:09;;;;;;;107.97;57.80;;;-0.50;99.90;;;;;;5069850;28;20044;-40
2021/12/03 05:31:36;;;;;;;105.00;56.05;;;-0.50;99.90;;;;;;5051643;28;20072;-42
2021/12/03 05:34:04;;;;;;;108.95;57.13;;;-0.50;99.90;;;;;;5069715;28;20075;-41
2021/12/03 05:36:30;;;;;;;102.53;52.58;;;-0.50;99.90;;;;;;5069545;28;20036;-42
2021/12/03 05:38:55;;;;;;;107.15;56.70;;;-0.50;99.90;;;;;;5069591;28;20045;-48
2021/12/03 05:41:21;;;;;;;106.70;56.22;;;-0.50;99.90;;;;;;5069422;28;20049;-47
2021/12/03 05:43:47;;;;;;;107.65;57.88;;;-0.50;99.90;;;;;;5034981;28;20113;-45
2021/12/03 05:46:13;;;;;;;108.28;56.72;;;-0.50;99.90;;;;;;5068981;28;20375;-47
2021/12/03 05:48:39;;;;;;;107.13;55.13;;;-0.50;99.90;;;;;;5067505;28;20052;-46
2021/12/03 05:51:06;;;;;;;101.85;56.50;;;-0.50;99.90;;;;;;5069130;28;20041;-47
2021/12/03 05:53:32;;;;;;;99.85;53.47;;;-0.40;99.90;;;;;;5050485;28;20426;-49
2021/12/03 05:55:58;;;;;;;113.65;59.72;;;-0.30;99.90;;;;;;5068944;28;20043;-47
2021/12/03 05:58:24;;;;;;;99.07;50.78;;;-0.40;99.90;;;;;;5069134;28;20458;-46
2021/12/03 06:00:50;;;;;;;112.28;58.10;;;-0.40;99.90;;;;;;5069474;28;20487;-45
2021/12/03 06:03:16;;;;;;;105.03;51.90;;;1.30;99.90;;;;;;5050392;28;20049;-46
2021/12/03 06:05:42;;;;;;;106.45;53.83;;;-0.40;99.90;;;;;;5068896;28;20044;-46
2021/12/03 06:08:08;;;;;;;107.93;49.05;;;-0.40;99.90;;;;;;5068858;28;20417;-49
2021/12/03 06:10:39;;;;;;;94.85;50.25;;;-0.40;99.90;;;;;;5069120;28;20037;-50
2021/12/03 06:13:12;;;;;;;106.35;52.92;;;-0.30;99.90;;;;;;5018762;28;20045;-50
2021/12/03 06:15:38;;;;;;;112.20;57.33;;;-0.40;99.90;;;;;;5068226;28;20375;-48
2021/12/03 06:18:04;;;;;;;100.05;47.58;;;-0.40;99.90;;;;;;5068321;28;20036;-48
2021/12/03 06:20:30;;;;;;;102.07;50.80;;;-0.40;99.90;;;;;;5068008;28;20049;-48
2021/12/03 06:22:55;;;;;;;104.63;50.25;;;-0.30;99.90;;;;;;5068096;28;20078;-50
2021/12/03 06:25:22;;;;;;;109.05;52.33;;;-0.40;99.90;;;;;;5068065;28;20048;-50
2021/12/03 06:27:49;;;;;;;108.75;51.25;;;-0.30;99.90;;;;;;5068166;28;20045;-49
2021/12/03 06:30:17;;;;;;;113.95;51.88;;;-0.30;99.90;;;;;;5068035;28;20041;-48
2021/12/03 06:32:43;;;;;;;100.45;52.88;;;-0.30;99.90;;;;;;5068029;28;20507;-49
2021/12/03 06:35:11;;;;;;;101.03;48.03;;;-0.30;99.90;;;;;;5068519;28;20079;-48
2021/12/03 06:37:37;;;;;;;107.50;49.53;;;-0.20;99.90;;;;;;5067229;28;20055;-50
2021/12/03 06:40:05;;;;;;;93.05;46.22;;;-0.10;99.90;;;;;;5068561;28;20033;-48
2021/12/03 06:42:31;;;;;;;92.30;44.97;;;-0.30;99.90;;;;;;5067907;28;20040;-48
2021/12/03 06:44:57;;;;;;;98.57;44.10;;;-0.30;99.90;;;;;;5066902;28;20053;-48
2021/12/03 06:47:23;;;;;;;102.97;44.72;;;-0.30;99.90;;;;;;5067751;28;20040;-49
2021/12/03 06:49:48;;;;;;;85.60;35.08;;;-0.30;99.90;;;;;;5068108;28;20468;-47
2021/12/03 06:52:16;;;;;;;88.03;41.85;;;-0.20;99.90;;;;;;5067544;28;20515;-47
2021/12/03 06:54:42;;;;;;;81.60;42.65;;;-0.20;99.90;;;;;;5068256;28;20045;-51
2021/12/03 06:57:10;;;;;;;82.05;35.58;;;-0.20;99.90;;;;;;5068299;28;20157;-48
2021/12/03 06:59:37;;;;;;;81.40;39.08;;;-0.10;99.90;;;;;;5067974;28;20079;-47
2021/12/03 07:02:03;;;;;;;84.90;38.25;;;-0.20;99.90;;;;;;5068257;28;20058;-47
2021/12/03 07:04:29;;;;;;;87.35;36.00;;;-0.10;99.90;;;;;;5068119;28;20044;-47
2021/12/03 07:06:55;;;;;;;85.85;37.25;;;-0.10;99.90;;;;;;5067979;28;20123;-48
2021/12/03 07:09:21;;;;;;;80.57;35.97;;;-0.10;99.90;;;;;;5067995;28;20047;-50
2021/12/03 07:11:47;;;;;;;95.38;41.08;;;-0.10;99.90;;;;;;5067968;28;20550;-48
2021/12/03 07:14:13;;;;;;;86.72;35.40;;;-0.10;99.90;;;;;;5068514;28;20045;-47
2021/12/03 07:16:38;;;;;;;100.35;42.35;;;-0.10;99.90;;;;;;5067999;28;20037;-51
2021/12/03 07:19:05;;;;;;;85.40;34.78;;;-0.10;99.90;;;;;;5067975;28;20040;-48
2021/12/03 07:21:31;;;;;;;74.22;33.35;;;0.00;99.90;;;;;;5067770;28;20076;-49
2021/12/03 07:23:57;;;;;;;89.43;35.53;;;0.00;99.90;;;;;;5067973;28;20451;-48
2021/12/03 07:26:24;;;;;;;93.97;38.10;;;0.00;99.90;;;;;;5067569;28;20048;-52
2021/12/03 07:28:51;;;;;;;82.43;36.55;;;0.00;99.90;;;;;;5067902;28;20101;-47
2021/12/03 07:31:17;;;;;;;102.13;38.10;;;0.00;99.90;;;;;;5067828;28;20521;-50
2021/12/03 07:33:43;;;;;;;99.28;37.47;;;0.00;99.90;;;;;;5050021;28;20063;-51
2021/12/03 07:36:09;;;;;;;107.30;41.53;;;0.00;99.90;;;;;;5068083;28;20044;-49
2021/12/03 07:38:35;;;;;;;96.85;40.30;;;0.00;99.90;;;;;;5068300;28;20032;-52
2021/12/03 07:41:02;;;;;;;112.28;40.00;;;0.00;99.90;;;;;;5068445;28;20047;-48
2021/12/03 07:43:28;;;;;;;109.47;40.72;;;0.00;99.90;;;;;;5068016;28;20041;-48
2021/12/03 07:45:54;;;;;;;121.97;42.13;;;0.10;99.90;;;;;;5066734;28;20048;-48
2021/12/03 07:48:21;;;;;;;113.53;41.30;;;0.10;99.90;;;;;;5067971;28;20166;-47
2021/12/03 07:50:47;;;;;;;112.10;41.70;;;0.10;99.90;;;;;;5071669;28;20059;-49
2021/12/03 07:53:16;;;;;;;102.20;39.05;;;0.00;99.90;;;;;;5071650;28;20059;-47
2021/12/03 07:55:43;;;;;;;104.60;34.90;;;0.10;99.90;;;;;;5053597;28;20567;-49
2021/12/03 07:58:09;;;;;;;106.03;38.80;;;0.10;99.90;;;;;;5071411;28;20087;-48
2021/12/03 08:00:35;;;;;;;120.18;43.13;;;0.20;99.90;;;;;;5071477;28;20115;-51
2021/12/03 08:03:01;;;;;;;119.53;43.00;;;0.20;99.90;;;;;;5071561;28;20487;-46
2021/12/03 08:05:27;;;;;;;108.15;38.70;;;0.20;99.90;;;;;;5072169;28;20226;-48
2021/12/03 08:07:52;;;;;;;131.30;39.85;;;0.20;99.90;;;;;;5071603;28;20447;-47
2021/12/03 08:10:18;;;;;;;107.00;39.88;;;0.20;99.90;;;;;;5071642;28;20122;-47
2021/12/03 08:12:46;;;;;;;117.03;42.00;;;0.20;99.90;;;;;;5071494;28;20048;-48
2021/12/03 08:15:13;;;;;;;131.30;40.03;;;0.20;99.90;;;;;;5071645;28;20098;-47
2021/12/03 08:17:39;;;;;;;123.75;43.55;;;0.60;99.90;;;;;;5070870;28;20506;-49
2021/12/03 08:20:07;;;;;;;128.43;40.22;;;0.30;99.90;;;;;;5071281;28;20127;-48
2021/12/03 08:22:33;;;;;;;128.15;41.28;;;0.30;99.90;;;;;;5071040;28;20137;-48
2021/12/03 08:24:59;;;;;;;135.25;43.90;;;0.20;99.90;;;;;;5070966;28;20186;-46
2021/12/03 08:27:26;;;;;;;139.02;43.72;;;0.30;99.90;;;;;;5070876;28;20037;-48
2021/12/03 08:29:51;;;;;;;123.05;41.35;;;0.30;99.90;;;;;;5071270;28;20402;-47
2021/12/03 08:32:17;;;;;;;128.70;41.97;;;0.30;99.90;;;;;;5070924;28;20052;-47
2021/12/03 08:34:43;;;;;;;142.65;45.35;;;0.30;99.90;;;;;;5071028;28;20036;-50
2021/12/03 08:37:09;;;;;;;126.80;39.70;;;0.40;99.90;;;;;;5071253;28;20482;-47
2021/12/03 08:39:36;;;;;;;133.50;44.60;;;0.70;99.90;;;;;;5070920;28;20125;-48
2021/12/03 08:42:04;;;;;;;134.40;44.53;;;0.50;99.90;;;;;;5070858;28;20041;-48
2021/12/03 08:44:30;;;;;;;133.35;44.88;;;0.40;99.90;;;;;;5052632;28;20063;-50
2021/12/03 08:47:04;;;;;;;145.45;46.70;;;0.40;99.90;;;;;;5069471;28;20036;-47
2021/12/03 08:49:48;;;;;;;136.60;47.17;;;0.50;99.90;;;;;;5070309;28;20449;-47
2021/12/03 08:54:53;;;;;;;160.70;49.77;;;0.50;99.90;;;;;;5070499;28;20043;-47
2021/12/03 08:57:31;;;;;;;150.88;41.70;;;0.50;99.90;;;;;;5070469;28;20502;-48
2021/12/03 08:59:59;;;;;;;157.32;47.33;;;0.60;99.90;;;;;;5070271;28;20521;-46
2021/12/03 09:02:25;;;;;;;165.85;52.97;;;0.60;99.90;;;;;;5069932;28;20080;-48
2021/12/03 09:04:51;;;;;;;165.93;49.78;;;1.70;99.90;;;;;;5070277;28;20072;-46
2021/12/03 09:07:17;;;;;;;169.65;52.75;;;0.70;99.90;;;;;;5070235;28;20056;-48
2021/12/03 09:09:43;;;;;;;165.77;57.00;;;0.70;99.90;;;;;;5069984;28;20044;-49
2021/12/03 09:12:10;;;;;;;170.90;57.67;;;0.70;99.90;;;;;;5070126;28;20051;-47
2021/12/03 09:14:40;;;;;;;177.40;57.47;;;0.80;99.90;;;;;;5070091;28;20523;-51
2021/12/03 09:19:53;;;;;;;166.70;58.58;;;0.80;99.90;;;;;;5069750;28;20040;-51
2021/12/03 09:25:10;;;;;;;179.40;59.00;;;0.90;99.90;;;;;;5069997;28;20474;-47
2021/12/03 09:27:36;;;;;;;180.32;62.03;;;1.00;99.90;;;;;;5069636;28;20044;-48
2021/12/03 09:30:08;;;;;;;189.18;61.03;;;0.90;99.90;;;;;;5069793;28;20044;-47
2021/12/03 09:32:34;;;;;;;194.68;62.55;;;0.90;99.90;;;;;;5069279;28;20040;-48
2021/12/03 09:35:02;;;;;;;175.57;62.33;;;1.00;99.90;;;;;;5069599;28;20066;-48
2021/12/03 09:37:28;;;;;;;188.00;65.57;;;0.90;99.90;;;;;;5069309;28;20117;-47
2021/12/03 09:39:55;;;;;;;198.23;60.53;;;1.00;99.90;;;;;;5069031;28;20566;-48
2021/12/03 09:42:21;;;;;;;187.57;65.40;;;1.00;99.90;;;;;;5069302;28;20044;-46
2021/12/03 09:44:50;;;;;;;172.50;62.13;;;1.10;99.90;;;;;;5067912;28;20272;-50
2021/12/03 09:47:18;;;;;;;204.40;67.53;;;1.20;99.90;;;;;;5028691;28;20529;-46
2021/12/03 09:49:45;;;;;;;169.43;60.17;;;1.20;99.90;;;;;;5029150;28;20127;-49
2021/12/03 09:52:25;;;;;;;196.88;66.75;;;1.20;99.90;;;;;;5029013;28;20136;-48
2021/12/03 09:55:12;;;;;;;169.70;57.17;;;1.20;99.90;;;;;;5028998;28;20033;-47
2021/12/03 10:01:06;;;;;;;149.93;57.15;;;1.30;99.90;;;;;;5029632;28;20060;-48
2021/12/03 10:17:00;;;;;;;155.55;54.45;;;1.50;99.90;;;;;;4974390;28;20053;-49
2021/12/03 10:33:08;;;;;;;120.35;43.75;;;1.90;99.90;;;;;;5027927;28;20061;-47
2021/12/03 10:36:07;;;;;;;106.88;40.00;;;1.90;99.90;;;;;;5028064;28;20046;-47
2021/12/03 10:41:20;;;;;;;119.35;43.47;;;2.00;99.90;;;;;;5027905;28;20136;-47
2021/12/03 10:44:11;;;;;;;110.68;38.03;;;1.90;99.90;;;;;;5027864;28;20129;-47
2021/12/03 10:46:46;;;;;;;103.07;40.65;;;2.00;99.90;;;;;;5059850;28;20062;-51
2021/12/03 11:17:34;;;;;;;64.88;24.73;;;2.20;99.90;;;;;;5068194;28;20090;-46
2021/12/03 11:31:24;;;;;;;60.15;20.95;;;2.30;99.90;;;;;;5009664;28;20049;-48
2021/12/03 12:33:07;;;;;;;34.72;12.65;;;2.60;99.90;;;;;;5071460;28;20059;-51
2021/12/03 12:39:18;;;;;;;34.28;12.35;;;2.20;99.90;;;;;;5071214;28;20047;-51
2021/12/03 13:58:06;;;;;;;32.30;14.45;;;2.50;99.90;;;;;;5069370;28;20178;-48
2021/12/03 14:48:46;;;;;;;27.92;12.85;;;2.60;99.90;;;;;;5068591;28;20379;-47
2021/12/03 14:54:14;;;;;;;34.35;12.05;;;2.70;99.90;;;;;;5068641;28;20052;-47
2021/12/03 14:56:40;;;;;;;28.17;13.55;;;2.50;99.90;;;;;;5068567;28;20052;-49
2021/12/03 14:59:28;;;;;;;22.95;10.45;;;2.70;99.90;;;;;;5049711;28;20040;-47
2021/12/03 15:02:07;;;;;;;22.38;11.60;;;3.00;99.90;;;;;;5068384;28;20040;-47
2021/12/03 15:07:11;;;;;;;27.30;10.88;;;2.70;99.90;;;;;;5068344;28;20076;-48
2021/12/03 15:09:45;;;;;;;24.02;12.45;;;2.70;99.90;;;;;;5068474;28;20044;-47
2021/12/03 15:33:08;;;;;;;27.42;15.43;;;4.40;99.90;;;;;;5067978;28;20490;-46
2021/12/03 16:19:04;;;;;;;29.38;18.13;;;2.90;99.90;;;;;;5052538;28;20044;-45
2021/12/03 16:53:30;;;;;;;31.63;17.95;;;3.20;99.90;;;;;;5071133;28;20405;-48
2021/12/03 16:56:06;;;;;;;42.45;24.52;;;3.20;99.90;;;;;;5071014;28;20502;-47
2021/12/03 16:58:34;;;;;;;42.25;24.27;;;3.00;99.90;;;;;;5070415;28;20060;-47
2021/12/03 17:01:14;;;;;;;46.45;25.27;;;3.20;99.90;;;;;;5070719;28;20044;-46
2021/12/03 17:03:49;;;;;;;40.08;24.00;;;3.20;99.90;;;;;;5070587;28;20427;-49
2021/12/03 17:09:12;;;;;;;42.00;25.75;;;3.30;99.90;;;;;;5069777;28;20059;-54
2021/12/03 17:49:40;;;;;;;48.80;28.48;;;3.20;99.90;;;;;;5066783;28;20123;-54
2021/12/03 17:55:16;;;;;;;61.53;32.50;;;3.50;99.90;;;;;;5066643;28;20497;-54
2021/12/03 18:00:56;;;;;;;62.75;32.72;;;3.40;99.90;;;;;;5067191;28;20141;-52
2021/12/03 18:03:29;;;;;;;56.55;31.05;;;3.40;99.90;;;;;;5065548;28;20071;-54
2021/12/03 18:06:24;;;;;;;60.50;31.90;;;3.20;99.90;;;;;;5065153;28;20091;-54
2021/12/03 18:56:47;;;;;;;64.32;30.73;;;3.60;99.90;;;;;;5047716;28;20040;-52
2021/12/03 18:59:14;;;;;;;73.72;35.58;;;1.50;99.90;;;;;;5066292;28;20056;-52
2021/12/03 19:01:40;;;;;;;66.28;31.77;;;3.60;99.90;;;;;;5066031;28;20053;-53
2021/12/03 19:11:53;;;;;;;70.70;32.45;;;3.50;99.90;;;;;;5065950;28;20048;-54
2021/12/03 19:14:20;;;;;;;84.43;38.42;;;3.50;99.90;;;;;;5066509;28;20384;-52
2021/12/03 19:16:46;;;;;;;80.75;36.88;;;4.60;99.90;;;;;;5065855;28;20059;-52
2021/12/03 19:19:14;;;;;;;70.32;32.95;;;3.50;99.90;;;;;;5066394;28;20475;-53
2021/12/03 19:21:42;;;;;;;87.55;36.97;;;3.60;99.90;;;;;;5065950;28;20044;-53
2021/12/03 19:24:10;;;;;;;82.00;35.78;;;3.50;99.90;;;;;;5064465;28;21512;-53
2021/12/03 19:26:47;;;;;;;77.72;35.15;;;4.80;99.90;;;;;;5066076;28;20071;-53
2021/12/03 19:29:15;;;;;;;98.30;41.40;;;3.70;99.90;;;;;;5064868;28;20043;-53
2021/12/03 19:31:42;;;;;;;84.03;35.90;;;3.70;99.90;;;;;;5065637;28;20040;-53
2021/12/03 19:34:10;;;;;;;91.85;37.85;;;3.70;99.90;;;;;;5065838;28;20040;-53
2021/12/03 19:36:42;;;;;;;96.88;40.17;;;3.70;99.90;;;;;;5046287;28;20033;-53
2021/12/03 19:39:10;;;;;;;97.80;38.92;;;3.70;99.90;;;;;;5065438;28;20521;-53
2021/12/03 19:41:43;;;;;;;91.07;37.88;;;3.80;99.90;;;;;;5065248;28;20033;-53
2021/12/03 19:44:12;;;;;;;95.82;41.42;;;3.50;99.90;;;;;;5063767;28;20363;-54
2021/12/03 19:46:43;;;;;;;83.47;34.47;;;3.70;99.90;;;;;;5069021;28;20048;-48
2021/12/03 19:51:41;;;;;;;86.05;33.90;;;3.60;99.90;;;;;;5066559;28;20044;-49
2021/12/03 19:54:07;;;;;;;108.70;41.03;;;3.70;99.90;;;;;;5068104;28;20450;-49
2021/12/03 19:56:33;;;;;;;103.40;39.15;;;4.50;99.90;;;;;;5050743;28;20040;-53
2021/12/03 19:58:59;;;;;;;97.22;38.22;;;3.80;99.90;;;;;;5068950;28;20040;-52
2021/12/03 20:01:28;;;;;;;93.45;38.88;;;3.80;99.90;;;;;;5068856;28;20150;-51
2021/12/03 20:03:54;;;;;;;106.20;41.33;;;3.60;99.90;;;;;;5068827;28;20051;-49
2021/12/03 20:06:22;;;;;;;91.35;36.53;;;3.70;99.90;;;;;;5068780;28;20036;-49
2021/12/03 20:08:52;;;;;;;105.13;37.55;;;3.80;99.90;;;;;;5069089;28;20036;-49
2021/12/03 20:11:18;;;;;;;79.50;32.45;;;3.80;99.90;;;;;;5069929;28;20490;-50
2021/12/03 20:13:46;;;;;;;96.93;39.38;;;3.70;99.90;;;;;;5069610;28;20051;-49
2021/12/03 20:16:31;;;;;;;98.97;37.92;;;3.80;99.90;;;;;;5069467;28;20040;-53
2021/12/03 20:19:40;;;;;;;89.00;35.42;;;4.30;99.90;;;;;;5067679;28;20055;-49
2021/12/03 20:22:12;;;;;;;88.10;31.95;;;4.10;99.90;;;;;;5059143;28;20359;-53
2021/12/03 20:27:41;;;;;;;86.45;33.80;;;3.80;99.90;;;;;;5022739;28;20052;-52
2021/12/03 20:30:14;;;;;;;81.93;31.80;;;3.80;99.90;;;;;;5048341;28;20107;-51
2021/12/03 20:32:46;;;;;;;90.65;34.25;;;3.90;99.90;;;;;;5047866;28;20059;-50